Time;durP1;ratioP1;P1;durP2;ratioP2;P2;SDS_P1;SDS_P2;PMS_P1;PMS_P2;Temp;Humidity;BMP_temperature;BMP_pressure;BME280_temperature;BME280_humidity;BME280_pressure;Samples;Min_cycle;Max_cycle;Signal;HPM_P1;HPM_P2
2023/11/13 00:02:07;;;;;;;25.15;22.55;;;4.60;99.90;;;;;;5007265;28;20038;-77
2023/11/13 00:04:33;;;;;;;29.02;23.80;;;4.60;99.90;;;;;;5012537;28;20045;-77
2023/11/13 00:06:59;;;;;;;33.75;26.20;;;4.60;99.90;;;;;;5011615;28;20097;-77
2023/11/13 00:09:25;;;;;;;36.22;26.25;;;4.60;99.90;;;;;;5008765;28;20068;-77
2023/11/13 00:11:53;;;;;;;25.13;22.33;;;4.60;99.90;;;;;;4986097;28;20054;-77
2023/11/13 00:14:19;;;;;;;31.50;25.75;;;4.50;99.90;;;;;;4988979;28;20049;-79
2023/11/13 00:16:45;;;;;;;39.10;26.52;;;4.50;99.90;;;;;;4987686;28;20045;-77
2023/11/13 00:19:11;;;;;;;24.48;21.98;;;4.40;99.90;;;;;;5010791;28;20037;-78
2023/11/13 00:21:37;;;;;;;26.17;23.27;;;4.40;99.90;;;;;;4988430;28;20403;-78
2023/11/13 00:24:05;;;;;;;27.60;23.98;;;4.40;99.90;;;;;;4993051;28;20045;-77
2023/11/13 00:26:31;;;;;;;24.35;21.77;;;4.40;99.90;;;;;;5003604;28;20061;-78
2023/11/13 00:28:57;;;;;;;23.95;20.45;;;4.30;99.90;;;;;;5015235;28;20614;-80
2023/11/13 00:31:23;;;;;;;21.52;19.27;;;4.30;99.90;;;;;;4990623;28;20049;-80
2023/11/13 00:33:49;;;;;;;23.50;21.00;;;4.30;99.90;;;;;;5010597;28;20049;-80
2023/11/13 00:36:16;;;;;;;25.35;21.35;;;4.20;99.90;;;;;;5005640;28;20127;-80
2023/11/13 00:38:42;;;;;;;42.63;27.88;;;4.20;99.90;;;;;;4993748;28;20073;-80
2023/11/13 00:41:12;;;;;;;29.95;25.23;;;4.20;99.90;;;;;;5007165;28;20470;-80
2023/11/13 00:43:39;;;;;;;30.23;24.75;;;4.20;99.90;;;;;;4993532;28;20567;-80
2023/11/13 00:46:06;;;;;;;34.25;26.48;;;4.10;99.90;;;;;;4988724;28;20119;-80
2023/11/13 00:48:33;;;;;;;29.33;24.42;;;4.20;99.90;;;;;;5012497;28;20064;-80
2023/11/13 00:51:02;;;;;;;27.25;24.27;;;4.20;99.90;;;;;;4990860;28;20120;-80
2023/11/13 00:53:35;;;;;;;31.33;25.83;;;4.20;99.90;;;;;;5012072;28;20163;-80
2023/11/13 00:56:02;;;;;;;31.13;26.02;;;4.20;99.90;;;;;;4999545;28;20500;-78
2023/11/13 00:58:31;;;;;;;35.78;26.30;;;4.20;99.90;;;;;;4991886;28;20046;-78
2023/11/13 01:00:57;;;;;;;34.92;27.83;;;4.20;99.90;;;;;;5009698;28;20042;-78
2023/11/13 01:03:23;;;;;;;37.75;27.08;;;4.20;99.90;;;;;;4993050;28;20533;-78
2023/11/13 01:05:50;;;;;;;76.32;31.08;;;4.20;99.90;;;;;;4992365;28;20053;-77
2023/11/13 01:08:16;;;;;;;162.75;33.95;;;4.20;99.90;;;;;;4994256;28;20128;-78
2023/11/13 01:10:41;;;;;;;91.82;24.52;;;4.30;99.90;;;;;;4994229;28;20200;-77
2023/11/13 01:13:07;;;;;;;116.78;25.35;;;4.20;99.90;;;;;;5018418;28;20037;-77
2023/11/13 01:15:33;;;;;;;132.13;24.85;;;4.10;99.90;;;;;;4990440;28;20053;-77
2023/11/13 01:17:59;;;;;;;173.98;27.40;;;4.00;99.90;;;;;;5004291;28;20095;-77
2023/11/13 01:20:25;;;;;;;135.93;29.48;;;4.00;99.90;;;;;;5016437;28;20527;-77
2023/11/13 01:22:54;;;;;;;132.93;26.10;;;3.90;99.90;;;;;;5012239;28;20156;-78
2023/11/13 01:25:20;;;;;;;160.68;27.92;;;3.90;99.90;;;;;;4988372;28;20411;-77
2023/11/13 01:27:46;;;;;;;140.43;29.90;;;3.90;99.90;;;;;;5008629;28;20046;-78
2023/11/13 01:30:12;;;;;;;74.60;27.73;;;3.80;99.90;;;;;;4989542;28;20053;-77
2023/11/13 01:32:38;;;;;;;102.68;29.17;;;3.80;99.90;;;;;;4987321;28;20045;-77
2023/11/13 01:35:05;;;;;;;98.70;28.23;;;3.80;99.90;;;;;;5010264;28;20395;-77
2023/11/13 01:37:31;;;;;;;96.55;28.98;;;3.80;99.90;;;;;;4988615;28;20523;-77
2023/11/13 01:39:57;;;;;;;106.78;31.65;;;3.80;99.90;;;;;;4993497;28;20057;-77
2023/11/13 01:42:22;;;;;;;102.40;33.55;;;3.80;99.90;;;;;;5006776;28;20080;-77
2023/11/13 01:44:49;;;;;;;166.63;38.50;;;3.70;99.90;;;;;;4993048;28;20128;-77
2023/11/13 01:47:15;;;;;;;154.68;35.85;;;3.70;99.90;;;;;;5014959;28;20491;-77
2023/11/13 01:49:43;;;;;;;129.95;36.53;;;3.60;99.90;;;;;;5010915;28;20079;-77
2023/11/13 01:52:10;;;;;;;89.88;36.58;;;3.60;99.90;;;;;;5011782;28;20041;-79
2023/11/13 01:54:36;;;;;;;107.25;35.85;;;3.60;99.90;;;;;;4991358;28;20102;-79
2023/11/13 01:57:05;;;;;;;90.15;35.15;;;3.60;99.90;;;;;;4986465;28;20530;-79
2023/11/13 01:59:34;;;;;;;49.30;29.40;;;3.60;99.90;;;;;;5008938;28;20053;-79
2023/11/13 02:02:03;;;;;;;106.93;35.35;;;3.60;99.90;;;;;;4992685;28;20050;-79
2023/11/13 02:04:29;;;;;;;76.28;32.72;;;3.60;99.90;;;;;;5003376;28;20049;-79
2023/11/13 02:06:54;;;;;;;37.72;31.33;;;3.60;99.90;;;;;;5007747;28;20098;-80
2023/11/13 02:09:21;;;;;;;32.15;27.95;;;3.60;99.90;;;;;;4998842;28;20115;-80
2023/11/13 02:11:47;;;;;;;123.80;37.22;;;3.60;99.90;;;;;;4989436;28;20403;-80
2023/11/13 02:14:14;;;;;;;27.38;24.67;;;3.60;99.90;;;;;;4993761;28;20044;-80
2023/11/13 02:16:40;;;;;;;29.58;26.58;;;3.60;99.90;;;;;;5006215;28;20045;-80
2023/11/13 02:19:06;;;;;;;34.05;25.60;;;3.60;99.90;;;;;;5007463;28;20132;-82
2023/11/13 02:21:33;;;;;;;32.65;26.40;;;3.50;99.90;;;;;;4994533;28;20106;-80
2023/11/13 02:24:01;;;;;;;31.98;25.98;;;3.50;99.90;;;;;;4994689;28;20044;-81
2023/11/13 02:26:27;;;;;;;45.17;25.27;;;3.50;99.90;;;;;;4998711;28;20045;-80
2023/11/13 02:28:53;;;;;;;31.13;24.23;;;3.50;99.90;;;;;;5009903;28;20049;-80
2023/11/13 02:31:19;;;;;;;31.60;20.73;;;3.50;99.90;;;;;;5013002;28;20288;-80
2023/11/13 02:33:45;;;;;;;25.08;21.52;;;3.40;99.90;;;;;;5001198;28;20042;-80
2023/11/13 02:36:11;;;;;;;31.70;22.08;;;3.30;99.90;;;;;;5011363;28;20111;-81
2023/11/13 02:38:36;;;;;;;36.08;25.15;;;3.30;99.90;;;;;;4995480;28;20246;-81
2023/11/13 02:41:03;;;;;;;29.27;26.20;;;3.30;99.90;;;;;;5006690;28;20064;-80
2023/11/13 02:43:28;;;;;;;27.38;24.50;;;3.20;99.90;;;;;;5010757;28;20053;-80
2023/11/13 02:45:54;;;;;;;25.25;22.77;;;3.20;99.90;;;;;;4991208;28;20044;-80
2023/11/13 02:48:20;;;;;;;26.08;23.02;;;3.20;99.90;;;;;;4993319;28;20045;-81
2023/11/13 02:50:46;;;;;;;46.05;25.67;;;3.20;99.90;;;;;;5012392;28;20096;-81
2023/11/13 02:53:13;;;;;;;28.15;25.20;;;3.20;99.90;;;;;;5007238;28;20037;-80
2023/11/13 02:55:39;;;;;;;31.38;24.00;;;3.20;99.90;;;;;;5008247;28;20053;-80
2023/11/13 02:58:05;;;;;;;104.97;33.65;;;3.20;99.90;;;;;;4991184;28;20048;-81
2023/11/13 03:00:33;;;;;;;56.42;31.15;;;3.20;99.90;;;;;;4991002;28;20594;-79
2023/11/13 03:02:59;;;;;;;26.02;23.42;;;3.10;99.90;;;;;;4999020;28;20398;-79
2023/11/13 03:05:25;;;;;;;26.52;23.80;;;3.10;99.90;;;;;;4992705;28;20503;-79
2023/11/13 03:07:50;;;;;;;28.67;24.05;;;3.10;99.90;;;;;;5004686;28;20034;-79
2023/11/13 03:10:16;;;;;;;28.88;25.85;;;3.10;99.90;;;;;;4996600;28;20120;-79
2023/11/13 03:12:42;;;;;;;36.58;30.05;;;3.10;99.90;;;;;;4996187;28;20046;-78
2023/11/13 03:15:11;;;;;;;33.10;28.08;;;3.10;99.90;;;;;;4992871;28;20048;-79
2023/11/13 03:17:37;;;;;;;33.53;28.55;;;3.10;99.90;;;;;;5010422;28;20256;-79
2023/11/13 03:20:04;;;;;;;30.23;27.02;;;3.20;99.90;;;;;;4984297;28;20132;-79
2023/11/13 03:22:29;;;;;;;31.70;27.85;;;3.20;99.90;;;;;;5016240;28;20056;-79
2023/11/13 03:24:55;;;;;;;31.85;28.55;;;3.40;99.90;;;;;;5013582;28;20053;-79
2023/11/13 03:27:21;;;;;;;36.50;31.75;;;3.30;99.90;;;;;;5007140;28;20045;-79
2023/11/13 03:29:47;;;;;;;42.50;35.63;;;3.40;99.90;;;;;;4985965;28;20407;-79
2023/11/13 03:32:13;;;;;;;39.25;33.53;;;3.50;99.90;;;;;;4992639;28;20033;-79
2023/11/13 03:34:40;;;;;;;50.20;36.25;;;3.50;99.90;;;;;;4990997;28;20781;-79
2023/11/13 03:37:06;;;;;;;48.00;39.15;;;3.50;99.90;;;;;;5009587;28;20045;-79
2023/11/13 03:39:32;;;;;;;35.80;31.88;;;3.50;99.90;;;;;;5004803;28;20549;-79
2023/11/13 03:41:57;;;;;;;46.00;35.72;;;3.50;99.90;;;;;;5008701;28;20041;-79
2023/11/13 03:44:23;;;;;;;38.70;33.25;;;3.50;99.90;;;;;;5010787;28;20061;-76
2023/11/13 03:46:51;;;;;;;48.75;35.83;;;3.50;99.90;;;;;;5006024;28;20389;-76
2023/11/13 03:49:17;;;;;;;55.33;39.67;;;3.50;99.90;;;;;;4997941;28;20116;-78
2023/11/13 03:51:43;;;;;;;42.40;35.53;;;3.60;99.90;;;;;;5007984;28;20260;-77
2023/11/13 03:54:08;;;;;;;44.10;37.08;;;3.60;99.90;;;;;;5013398;28;21005;-77
2023/11/13 03:56:34;;;;;;;49.10;38.13;;;3.50;99.90;;;;;;5000160;28;20045;-77
2023/11/13 03:59:00;;;;;;;41.22;35.63;;;3.50;99.90;;;;;;4995992;28;20039;-77
2023/11/13 04:01:26;;;;;;;38.00;32.95;;;3.60;99.90;;;;;;4988967;28;20056;-78
2023/11/13 04:03:52;;;;;;;40.83;35.20;;;3.60;99.90;;;;;;4988958;28;20056;-78
2023/11/13 04:06:19;;;;;;;42.67;35.08;;;3.60;99.90;;;;;;4992278;28;20709;-77
2023/11/13 04:08:44;;;;;;;49.67;36.97;;;3.60;99.90;;;;;;5005333;28;20037;-77
2023/11/13 04:11:10;;;;;;;50.50;38.75;;;3.60;99.90;;;;;;5007932;28;20037;-78
2023/11/13 04:13:36;;;;;;;39.92;33.65;;;3.60;99.90;;;;;;4991444;28;20392;-78
2023/11/13 04:16:03;;;;;;;51.53;40.05;;;3.60;99.90;;;;;;4994891;28;20080;-78
2023/11/13 04:18:30;;;;;;;41.50;34.10;;;3.60;99.90;;;;;;4989452;28;20496;-78
2023/11/13 04:20:56;;;;;;;45.65;35.55;;;3.60;99.90;;;;;;4996657;28;20052;-78
2023/11/13 04:23:23;;;;;;;41.20;35.00;;;3.70;99.90;;;;;;4990671;28;20187;-77
2023/11/13 04:25:49;;;;;;;38.38;33.67;;;3.70;99.90;;;;;;5010213;28;20152;-78
2023/11/13 04:28:19;;;;;;;43.40;32.67;;;3.70;99.90;;;;;;5005800;28;20526;-78
2023/11/13 04:30:49;;;;;;;45.05;36.88;;;3.70;99.90;;;;;;5013884;28;20128;-78
2023/11/13 04:33:14;;;;;;;43.27;35.43;;;3.70;99.90;;;;;;5009516;28;20029;-78
2023/11/13 04:35:40;;;;;;;40.13;33.53;;;3.70;99.90;;;;;;4993908;28;20300;-78
2023/11/13 04:38:06;;;;;;;43.58;35.10;;;3.80;99.90;;;;;;4986478;28;20033;-78
2023/11/13 04:40:32;;;;;;;40.97;32.60;;;3.80;99.90;;;;;;4993326;28;20053;-78
2023/11/13 04:43:01;;;;;;;43.28;34.33;;;3.80;99.90;;;;;;4986704;28;20034;-77
2023/11/13 04:45:27;;;;;;;45.63;36.45;;;3.80;99.90;;;;;;4990729;28;20158;-78
2023/11/13 04:47:54;;;;;;;45.20;36.50;;;3.80;99.90;;;;;;4987899;28;20049;-78
2023/11/13 04:50:19;;;;;;;48.28;37.30;;;3.80;99.90;;;;;;4988727;28;20502;-78
2023/11/13 04:52:45;;;;;;;40.17;33.58;;;3.80;99.90;;;;;;5011665;28;20192;-78
2023/11/13 04:55:12;;;;;;;39.95;33.38;;;3.80;99.90;;;;;;5001462;28;20289;-77
2023/11/13 04:57:38;;;;;;;41.65;34.55;;;3.90;99.90;;;;;;5009381;28;20475;-78
2023/11/13 05:00:05;;;;;;;43.53;35.58;;;3.90;99.90;;;;;;4991284;28;20037;-78
2023/11/13 05:02:36;;;;;;;41.83;34.70;;;3.90;99.90;;;;;;5014333;28;20338;-78
2023/11/13 05:05:03;;;;;;;44.95;36.47;;;3.90;99.90;;;;;;4998877;28;20041;-79
2023/11/13 05:07:29;;;;;;;45.35;36.45;;;3.90;99.90;;;;;;5000535;28;20209;-78
2023/11/13 05:09:55;;;;;;;43.50;35.97;;;3.90;99.90;;;;;;4992095;28;20080;-78
2023/11/13 05:12:22;;;;;;;42.80;35.25;;;3.90;99.90;;;;;;4990503;28;20091;-78
2023/11/13 05:14:48;;;;;;;42.95;35.63;;;3.90;99.90;;;;;;5008729;28;20053;-78
2023/11/13 05:17:14;;;;;;;42.95;35.72;;;3.90;99.90;;;;;;5007795;28;20045;-78
2023/11/13 05:19:40;;;;;;;40.80;33.55;;;3.90;99.90;;;;;;4992961;28;20045;-78
2023/11/13 05:22:06;;;;;;;51.78;38.53;;;3.90;99.90;;;;;;4987156;28;20604;-79
2023/11/13 05:24:32;;;;;;;43.72;34.78;;;3.90;99.90;;;;;;5009546;28;20132;-78
2023/11/13 05:26:57;;;;;;;37.80;33.70;;;3.90;99.90;;;;;;5014987;28;20520;-78
2023/11/13 05:29:24;;;;;;;46.70;38.33;;;3.90;99.90;;;;;;5007099;28;20364;-78
2023/11/13 05:31:51;;;;;;;36.10;32.33;;;3.90;99.90;;;;;;5016379;28;20049;-78
2023/11/13 05:34:17;;;;;;;35.28;30.92;;;4.00;99.90;;;;;;5007450;28;20040;-78
2023/11/13 05:36:43;;;;;;;42.72;34.15;;;4.00;99.90;;;;;;5010980;28;20046;-78
2023/11/13 05:39:12;;;;;;;38.67;34.60;;;4.00;99.90;;;;;;5007927;28;20567;-78
2023/11/13 05:41:38;;;;;;;43.95;36.25;;;4.00;99.90;;;;;;5028885;28;20045;-78
2023/11/13 05:44:04;;;;;;;38.05;33.67;;;4.00;99.90;;;;;;5008691;28;20041;-78
2023/11/13 05:46:30;;;;;;;38.28;33.90;;;4.00;99.90;;;;;;4990984;28;20040;-78
2023/11/13 05:48:56;;;;;;;36.90;32.90;;;4.00;99.90;;;;;;4990911;28;20125;-78
2023/11/13 05:51:24;;;;;;;44.25;37.58;;;4.00;99.90;;;;;;5015439;28;20160;-78
2023/11/13 05:53:50;;;;;;;43.00;36.60;;;4.00;99.90;;;;;;5003803;28;20048;-79
2023/11/13 05:56:16;;;;;;;37.88;33.80;;;4.00;99.90;;;;;;5000958;28;20038;-78
2023/11/13 05:58:42;;;;;;;48.20;38.20;;;4.10;99.90;;;;;;5008963;28;20406;-79
2023/11/13 06:01:08;;;;;;;43.63;36.35;;;4.00;99.90;;;;;;5000645;28;20029;-79
2023/11/13 06:03:34;;;;;;;34.35;30.65;;;4.10;99.90;;;;;;5008699;28;20133;-79
2023/11/13 06:06:00;;;;;;;36.40;32.45;;;4.00;99.90;;;;;;4995657;28;20057;-79
2023/11/13 06:08:26;;;;;;;36.53;32.13;;;4.10;99.90;;;;;;4993757;28;20645;-79
2023/11/13 06:10:52;;;;;;;37.78;32.75;;;4.00;99.90;;;;;;5011189;28;20128;-79
2023/11/13 06:13:18;;;;;;;37.95;32.30;;;4.10;99.90;;;;;;4993007;28;20496;-79
2023/11/13 06:15:43;;;;;;;35.40;31.58;;;4.00;99.90;;;;;;5008101;28;20052;-80
2023/11/13 06:18:09;;;;;;;38.17;32.85;;;4.00;99.90;;;;;;5007413;28;20037;-79
2023/11/13 06:20:35;;;;;;;37.22;32.88;;;4.00;99.90;;;;;;5008049;28;20100;-80
2023/11/13 06:23:02;;;;;;;35.92;32.10;;;4.00;99.90;;;;;;5006902;28;20049;-80
2023/11/13 06:25:28;;;;;;;35.50;30.13;;;4.00;99.90;;;;;;5015085;28;20049;-80
2023/11/13 06:27:56;;;;;;;35.85;30.95;;;4.00;99.90;;;;;;5006475;28;20485;-80
2023/11/13 06:30:23;;;;;;;36.05;31.75;;;4.00;99.90;;;;;;5007599;28;20100;-80
2023/11/13 06:32:50;;;;;;;36.53;32.58;;;4.00;99.90;;;;;;4991227;28;20064;-79
2023/11/13 06:35:19;;;;;;;35.90;31.30;;;4.00;99.90;;;;;;5004670;28;20103;-80
2023/11/13 06:37:45;;;;;;;40.03;34.73;;;3.90;99.90;;;;;;5005200;28;20058;-80
2023/11/13 06:40:12;;;;;;;36.40;31.90;;;3.90;99.90;;;;;;4993317;28;20357;-80
2023/11/13 06:42:37;;;;;;;41.38;34.55;;;4.00;99.90;;;;;;4991936;28;20064;-79
2023/11/13 06:45:03;;;;;;;38.33;32.10;;;4.00;99.90;;;;;;5010893;28;20499;-78
2023/11/13 06:47:29;;;;;;;35.30;30.20;;;4.00;99.90;;;;;;5009995;28;20488;-78
2023/11/13 06:49:55;;;;;;;36.83;32.80;;;4.00;99.90;;;;;;5008151;28;20050;-79
2023/11/13 06:52:22;;;;;;;34.50;30.75;;;4.00;99.90;;;;;;4991729;28;20473;-78
2023/11/13 06:54:48;;;;;;;36.22;31.88;;;4.00;99.90;;;;;;5007456;28;20151;-78
2023/11/13 06:57:14;;;;;;;34.60;30.92;;;4.10;99.90;;;;;;5013557;28;20044;-79
2023/11/13 06:59:43;;;;;;;36.78;32.00;;;4.00;99.90;;;;;;4994028;28;20033;-78
2023/11/13 07:02:09;;;;;;;35.78;31.77;;;4.00;99.90;;;;;;5020150;28;20109;-78
2023/11/13 07:04:34;;;;;;;37.28;31.95;;;4.00;99.90;;;;;;4994669;28;20053;-79
2023/11/13 07:07:02;;;;;;;36.25;32.35;;;4.00;99.90;;;;;;4994880;28;20041;-78
2023/11/13 07:09:27;;;;;;;36.22;31.80;;;4.00;99.90;;;;;;5012363;28;20080;-78
2023/11/13 07:11:53;;;;;;;34.50;30.95;;;4.10;99.90;;;;;;4995834;28;20483;-79
2023/11/13 07:14:19;;;;;;;34.70;30.92;;;4.10;99.90;;;;;;5010132;28;20046;-79
2023/11/13 07:16:45;;;;;;;35.90;31.55;;;4.10;99.90;;;;;;5014568;28;20191;-79
2023/11/13 07:19:13;;;;;;;35.17;31.30;;;4.10;99.90;;;;;;4988161;28;20033;-79
2023/11/13 07:21:42;;;;;;;35.67;31.40;;;4.10;99.90;;;;;;4993611;28;20045;-80
2023/11/13 07:24:09;;;;;;;38.97;31.58;;;4.10;99.90;;;;;;5004917;28;20049;-80
2023/11/13 07:26:36;;;;;;;36.47;32.47;;;4.10;99.90;;;;;;4990743;28;20034;-80
2023/11/13 07:29:02;;;;;;;35.30;31.48;;;4.10;99.90;;;;;;4995911;28;20503;-80
2023/11/13 07:31:28;;;;;;;36.50;32.42;;;4.20;99.90;;;;;;4990025;28;20186;-80
2023/11/13 07:33:54;;;;;;;35.33;31.02;;;4.20;99.90;;;;;;5012290;28;20140;-81
2023/11/13 07:36:21;;;;;;;37.22;31.77;;;4.20;99.90;;;;;;5003270;28;20045;-80
2023/11/13 07:38:47;;;;;;;34.40;30.67;;;4.20;99.90;;;;;;5004698;28;20042;-81
2023/11/13 07:41:13;;;;;;;34.33;30.65;;;4.20;99.90;;;;;;5007586;28;20064;-80
2023/11/13 07:43:43;;;;;;;41.38;34.55;;;4.30;99.90;;;;;;5009993;28;20080;-81
2023/11/13 07:46:09;;;;;;;34.20;30.60;;;4.30;99.90;;;;;;5009957;28;20081;-80
2023/11/13 07:48:35;;;;;;;33.97;30.05;;;4.30;99.90;;;;;;4992562;28;20569;-80
2023/11/13 07:51:03;;;;;;;34.88;31.10;;;4.30;99.90;;;;;;4999157;28;20120;-79
2023/11/13 07:53:29;;;;;;;34.65;29.85;;;4.40;99.90;;;;;;5015541;28;20049;-80
2023/11/13 07:55:55;;;;;;;32.33;28.77;;;4.40;99.90;;;;;;4991192;28;20257;-79
2023/11/13 07:58:22;;;;;;;36.55;31.33;;;4.40;99.90;;;;;;4989989;28;20049;-80
2023/11/13 08:00:52;;;;;;;32.17;28.70;;;4.40;99.90;;;;;;4990077;28;20041;-81
2023/11/13 08:03:25;;;;;;;35.28;29.30;;;4.50;99.90;;;;;;5018240;28;20285;-80
2023/11/13 08:05:52;;;;;;;33.55;29.27;;;4.50;99.90;;;;;;5003255;28;20501;-80
2023/11/13 08:08:18;;;;;;;32.33;28.77;;;4.60;99.90;;;;;;5005349;28;20242;-80
2023/11/13 08:10:47;;;;;;;35.95;28.05;;;4.60;99.90;;;;;;5009322;28;20068;-78
2023/11/13 08:13:14;;;;;;;31.27;27.77;;;4.60;99.90;;;;;;4998796;28;20540;-79
2023/11/13 08:15:42;;;;;;;32.08;28.63;;;4.60;99.90;;;;;;4989976;28;20152;-79
2023/11/13 08:18:13;;;;;;;32.88;29.27;;;4.70;99.90;;;;;;4989128;28;20075;-80
2023/11/13 08:20:44;;;;;;;29.23;26.10;;;4.70;99.90;;;;;;4993082;28;20464;-79
2023/11/13 08:23:10;;;;;;;35.80;29.05;;;4.70;99.90;;;;;;5006052;28;20488;-79
2023/11/13 08:25:46;;;;;;;29.85;26.65;;;4.80;99.90;;;;;;4990970;28;20172;-79
2023/11/13 08:28:13;;;;;;;34.95;28.75;;;4.80;99.90;;;;;;4989714;28;20057;-79
2023/11/13 08:30:43;;;;;;;32.83;28.75;;;4.80;99.90;;;;;;4997558;28;20056;-80
2023/11/13 08:33:10;;;;;;;34.55;28.83;;;4.90;99.90;;;;;;4990759;28;20033;-79
2023/11/13 08:35:37;;;;;;;34.53;30.52;;;4.90;99.90;;;;;;4992353;28;20041;-80
2023/11/13 08:38:03;;;;;;;31.20;27.73;;;4.90;99.90;;;;;;5014489;28;20507;-80
2023/11/13 08:40:29;;;;;;;30.90;27.50;;;5.00;99.90;;;;;;5005882;28;20621;-78
2023/11/13 08:42:58;;;;;;;33.05;29.45;;;4.90;99.90;;;;;;4992161;28;20067;-79
2023/11/13 08:45:26;;;;;;;37.47;30.10;;;5.00;99.90;;;;;;5005212;28;20153;-78
2023/11/13 08:47:54;;;;;;;32.15;28.70;;;5.00;99.90;;;;;;4988883;28;20558;-77
2023/11/13 08:50:21;;;;;;;32.53;29.00;;;5.00;99.90;;;;;;5010388;28;20269;-76
2023/11/13 08:52:48;;;;;;;31.88;28.48;;;5.00;99.90;;;;;;4996086;28;20049;-76
2023/11/13 08:55:17;;;;;;;31.85;28.38;;;5.00;99.90;;;;;;4994121;28;20037;-76
2023/11/13 08:57:47;;;;;;;37.83;31.10;;;5.10;99.90;;;;;;4987393;28;21205;-77
2023/11/13 09:00:21;;;;;;;37.00;30.60;;;5.10;99.90;;;;;;5007544;28;20534;-77
2023/11/13 09:02:48;;;;;;;35.65;30.42;;;5.10;99.90;;;;;;5011311;28;20072;-77
2023/11/13 09:05:15;;;;;;;40.88;32.60;;;5.20;99.90;;;;;;5005073;28;20045;-77
2023/11/13 09:07:41;;;;;;;35.72;30.55;;;5.20;99.90;;;;;;5015295;28;20084;-78
2023/11/13 09:10:09;;;;;;;38.10;32.13;;;5.20;99.90;;;;;;4994994;28;20045;-78
2023/11/13 09:12:44;;;;;;;39.90;32.53;;;5.20;99.90;;;;;;4993630;28;20056;-78
2023/11/13 09:15:13;;;;;;;43.78;32.80;;;5.20;99.90;;;;;;4993049;28;20042;-78
2023/11/13 09:17:47;;;;;;;43.45;33.47;;;5.30;99.90;;;;;;5016753;28;20136;-78
2023/11/13 09:20:15;;;;;;;44.80;35.58;;;5.30;99.90;;;;;;5016712;28;20045;-78
2023/11/13 09:22:43;;;;;;;45.90;35.28;;;5.30;99.90;;;;;;4991912;28;20050;-77
2023/11/13 09:25:13;;;;;;;40.75;32.70;;;5.30;99.90;;;;;;4996955;28;20365;-78
2023/11/13 09:27:43;;;;;;;50.63;36.90;;;5.40;99.90;;;;;;4993085;28;20045;-78
2023/11/13 09:30:12;;;;;;;49.45;35.60;;;5.40;99.90;;;;;;4995829;28;20858;-78
2023/11/13 09:32:44;;;;;;;66.93;39.38;;;5.40;99.90;;;;;;4995318;28;20496;-78
2023/11/13 09:35:24;;;;;;;50.08;36.45;;;5.40;99.90;;;;;;4994865;28;20045;-78
2023/11/13 09:37:57;;;;;;;53.77;37.10;;;5.40;99.90;;;;;;4999907;28;20377;-79
2023/11/13 09:40:25;;;;;;;56.55;38.75;;;5.50;99.90;;;;;;5023282;28;20295;-79
2023/11/13 09:42:53;;;;;;;59.10;38.38;;;5.50;99.90;;;;;;5010595;28;20042;-79
2023/11/13 09:45:20;;;;;;;48.67;34.72;;;5.50;99.90;;;;;;4993806;28;20277;-80
2023/11/13 09:47:47;;;;;;;58.33;39.10;;;5.50;99.90;;;;;;5004030;28;20052;-79
2023/11/13 09:50:17;;;;;;;72.57;43.22;;;5.60;99.90;;;;;;5011173;28;20492;-80
2023/11/13 09:52:50;;;;;;;63.60;40.72;;;5.60;99.90;;;;;;4991105;28;20050;-79
2023/11/13 09:55:23;;;;;;;61.75;39.08;;;5.60;99.90;;;;;;5012275;28;20179;-79
2023/11/13 09:57:52;;;;;;;64.35;40.58;;;5.60;99.90;;;;;;5011198;28;20042;-80
2023/11/13 10:00:26;;;;;;;61.97;40.15;;;5.60;99.90;;;;;;4991856;28;20775;-80
2023/11/13 10:02:55;;;;;;;64.90;40.38;;;5.70;99.90;;;;;;5006555;28;20038;-78
2023/11/13 10:05:22;;;;;;;73.28;42.78;;;5.70;99.90;;;;;;5013541;28;20033;-79
2023/11/13 10:07:53;;;;;;;74.68;43.67;;;5.70;99.90;;;;;;5008588;28;20054;-78
2023/11/13 10:10:24;;;;;;;78.13;44.70;;;5.70;99.90;;;;;;5007636;28;20128;-78
2023/11/13 10:13:01;;;;;;;67.97;41.15;;;5.70;99.90;;;;;;5007552;28;20053;-78
2023/11/13 10:15:36;;;;;;;97.40;47.58;;;5.70;99.90;;;;;;4989765;28;20045;-78
2023/11/13 10:18:08;;;;;;;71.05;41.42;;;5.80;99.90;;;;;;4994116;28;20049;-78
2023/11/13 10:20:41;;;;;;;69.20;42.20;;;5.80;99.90;;;;;;5012653;28;20484;-80
2023/11/13 10:23:08;;;;;;;75.07;43.35;;;5.90;99.90;;;;;;4992313;28;20041;-79
2023/11/13 10:25:50;;;;;;;82.68;44.63;;;5.90;99.90;;;;;;5008251;28;20047;-79
2023/11/13 10:28:21;;;;;;;63.72;40.15;;;6.00;99.90;;;;;;4989793;28;20045;-79
2023/11/13 10:30:58;;;;;;;73.00;41.20;;;6.10;99.90;;;;;;4989788;28;20103;-83
2023/11/13 10:33:27;;;;;;;68.30;41.35;;;6.00;99.90;;;;;;4991552;28;20050;-82
2023/11/13 10:35:56;;;;;;;69.20;42.65;;;6.10;99.90;;;;;;5005011;28;20131;-83
2023/11/13 10:38:22;;;;;;;79.25;43.08;;;6.10;99.90;;;;;;5008397;28;20048;-82
2023/11/13 10:41:03;;;;;;;72.63;44.33;;;6.20;99.90;;;;;;4994574;28;20037;-82
2023/11/13 10:43:39;;;;;;;79.78;44.42;;;6.10;99.90;;;;;;5004280;28;20069;-82
2023/11/13 10:46:06;;;;;;;75.70;44.60;;;6.20;99.90;;;;;;5020894;28;20113;-82
2023/11/13 10:48:41;;;;;;;92.18;46.70;;;6.20;99.90;;;;;;4993640;28;20053;-82
2023/11/13 10:51:09;;;;;;;70.00;42.05;;;6.30;99.90;;;;;;5011064;28;20526;-82
2023/11/13 10:53:39;;;;;;;85.32;46.33;;;6.30;99.90;;;;;;5014357;28;20556;-82
2023/11/13 10:56:06;;;;;;;68.50;43.42;;;6.30;99.90;;;;;;5004777;28;20042;-83
2023/11/13 10:58:32;;;;;;;74.30;43.72;;;6.50;99.90;;;;;;5007459;28;20147;-83
2023/11/13 11:01:00;;;;;;;67.88;43.03;;;6.50;99.90;;;;;;4993709;28;20045;-82
2023/11/13 11:03:33;;;;;;;76.28;42.45;;;6.60;99.90;;;;;;5004160;28;20053;-83
2023/11/13 11:06:11;;;;;;;96.72;45.05;;;6.60;99.90;;;;;;5006107;28;20145;-82
2023/11/13 11:08:38;;;;;;;71.90;43.10;;;6.70;99.90;;;;;;4992870;28;20037;-83
2023/11/13 11:11:10;;;;;;;79.75;44.75;;;6.70;99.90;;;;;;4997250;28;20073;-83
2023/11/13 11:13:39;;;;;;;61.08;39.47;;;6.70;99.90;;;;;;5004230;28;20567;-82
2023/11/13 11:16:19;;;;;;;66.10;41.73;;;6.80;99.90;;;;;;4985076;28;20873;-83
2023/11/13 11:18:59;;;;;;;70.18;40.55;;;6.90;99.90;;;;;;4997763;28;20042;-83
2023/11/13 11:21:46;;;;;;;63.30;39.78;;;6.90;99.90;;;;;;4991919;28;20492;-83
2023/11/13 11:24:31;;;;;;;71.50;40.42;;;6.90;99.90;;;;;;4998662;28;20502;-83
2023/11/13 11:27:01;;;;;;;60.22;39.83;;;6.90;99.90;;;;;;5009006;28;20076;-83
2023/11/13 11:29:35;;;;;;;66.18;41.17;;;7.00;99.90;;;;;;4980963;28;20041;-83
2023/11/13 11:32:22;;;;;;;62.17;38.50;;;7.00;99.90;;;;;;5006820;28;20491;-83
2023/11/13 11:35:01;;;;;;;55.63;36.40;;;7.10;99.90;;;;;;4997383;28;20048;-84
2023/11/13 11:37:27;;;;;;;56.38;36.80;;;7.10;99.90;;;;;;5006527;28;20052;-83
2023/11/13 11:39:53;;;;;;;58.90;35.65;;;7.20;99.90;;;;;;5009017;28;20038;-86
2023/11/13 11:42:28;;;;;;;51.13;34.75;;;7.30;99.90;;;;;;4992009;28;20049;-83
2023/11/13 11:44:54;;;;;;;51.15;34.38;;;7.40;99.90;;;;;;4991143;28;20037;-84
2023/11/13 11:47:25;;;;;;;53.58;34.00;;;7.50;99.90;;;;;;4985590;28;20511;-84
2023/11/13 11:49:52;;;;;;;51.17;33.17;;;7.50;99.90;;;;;;4986624;28;20409;-84
2023/11/13 11:52:38;;;;;;;50.85;32.75;;;7.50;99.90;;;;;;4987920;28;20484;-83
2023/11/13 11:55:04;;;;;;;46.17;32.33;;;7.60;99.90;;;;;;5003767;28;20846;-84
2023/11/13 11:57:30;;;;;;;50.78;34.25;;;7.70;99.90;;;;;;5001647;28;20065;-84
2023/11/13 12:00:00;;;;;;;38.97;28.55;;;7.70;99.90;;;;;;4987961;28;20061;-84
2023/11/13 12:02:30;;;;;;;45.92;30.92;;;7.70;99.90;;;;;;4986925;28;20080;-84
2023/11/13 12:05:00;;;;;;;40.33;29.20;;;7.80;99.90;;;;;;5011916;28;20033;-83
2023/11/13 12:07:25;;;;;;;40.83;28.27;;;7.80;99.90;;;;;;5006366;28;20077;-83
2023/11/13 12:09:53;;;;;;;36.70;27.08;;;7.80;99.90;;;;;;5003377;28;20075;-83
2023/11/13 12:12:19;;;;;;;44.67;27.58;;;7.90;99.90;;;;;;4983542;28;20130;-85
2023/11/13 12:14:45;;;;;;;45.30;27.38;;;7.90;99.90;;;;;;5008296;28;20331;-85
2023/11/13 12:17:12;;;;;;;45.03;29.10;;;7.90;99.90;;;;;;4991388;28;20660;-84
2023/11/13 12:19:39;;;;;;;35.95;26.40;;;8.00;99.90;;;;;;4989549;28;20049;-85
2023/11/13 12:22:05;;;;;;;41.88;28.15;;;8.00;99.90;;;;;;5007752;28;20049;-84
2023/11/13 12:24:32;;;;;;;33.70;24.73;;;8.00;99.90;;;;;;5007845;28;20060;-86
2023/11/13 12:26:58;;;;;;;34.88;24.75;;;8.10;99.90;;;;;;4990557;28;20041;-85
2023/11/13 12:29:27;;;;;;;33.83;23.40;;;8.10;99.90;;;;;;4986353;28;20500;-83
2023/11/13 12:31:53;;;;;;;34.80;23.52;;;8.10;99.90;;;;;;4983472;28;20126;-84
2023/11/13 12:34:20;;;;;;;36.80;24.23;;;8.20;99.90;;;;;;5007951;28;20048;-85
2023/11/13 12:36:48;;;;;;;51.05;26.73;;;8.20;99.90;;;;;;5012147;28;20041;-84
2023/11/13 12:39:16;;;;;;;30.23;22.23;;;8.20;99.90;;;;;;5009699;28;20084;-84